createdAt,value
2023-06-30T00:00:41.782Z,42.13
2023-06-30T00:01:41.899Z,42.08
2023-06-30T00:02:42.028Z,42.07
2023-06-30T00:03:42.054Z,42.02
2023-06-30T00:04:41.989Z,41.98
2023-06-30T00:05:42.050Z,41.97
2023-06-30T00:06:42.107Z,41.95
2023-06-30T00:07:42.190Z,41.94
2023-06-30T00:08:42.217Z,41.92
2023-06-30T00:09:42.284Z,41.91
2023-06-30T00:10:42.342Z,41.93
2023-06-30T00:11:42.409Z,41.95
2023-06-30T00:12:42.497Z,41.92
2023-06-30T00:13:42.520Z,41.93
2023-06-30T00:14:42.570Z,41.91
2023-06-30T00:15:42.715Z,41.93
2023-06-30T00:16:42.639Z,41.94
2023-06-30T00:17:42.699Z,41.96
2023-06-30T00:18:42.753Z,41.96
2023-06-30T00:19:42.797Z,41.94
2023-06-30T00:20:42.826Z,41.94
2023-06-30T00:21:42.923Z,41.95
2023-06-30T00:22:42.937Z,41.95
2023-06-30T00:23:43.008Z,41.97
2023-06-30T00:24:43.051Z,41.94
2023-06-30T00:25:43.340Z,41.97
2023-06-30T00:26:43.067Z,41.97
2023-06-30T00:27:43.111Z,41.98
2023-06-30T00:28:43.165Z,41.98
2023-06-30T00:29:43.147Z,41.98
2023-06-30T00:30:43.193Z,41.97
2023-06-30T00:31:43.305Z,41.98
2023-06-30T00:32:43.309Z,41.99
2023-06-30T00:33:43.393Z,41.99
2023-06-30T00:34:43.461Z,41.99
2023-06-30T00:35:43.599Z,41.98
2023-06-30T00:36:43.500Z,41.99
2023-06-30T00:37:43.562Z,41.99
2023-06-30T00:38:43.615Z,42.03
2023-06-30T00:39:43.640Z,42.00
2023-06-30T00:40:43.692Z,42.01
2023-06-30T00:41:43.777Z,42.02
2023-06-30T00:42:43.758Z,42.02
2023-06-30T00:43:43.819Z,41.97
2023-06-30T00:44:43.907Z,42.01
2023-06-30T00:45:44.137Z,42.01
2023-06-30T00:46:44.037Z,42.00
2023-06-30T00:47:44.080Z,42.01
2023-06-30T00:48:44.087Z,42.01
2023-06-30T00:49:44.150Z,42.04
2023-06-30T00:50:44.212Z,42.00
2023-06-30T00:51:44.256Z,42.03
2023-06-30T00:52:44.291Z,42.02
2023-06-30T00:53:44.341Z,42.01
2023-06-30T00:54:44.380Z,42.02
2023-06-30T00:55:44.741Z,42.02
2023-06-30T00:56:44.499Z,41.99
2023-06-30T00:57:44.517Z,42.03
2023-06-30T00:58:44.562Z,42.04
2023-06-30T00:59:44.569Z,42.03
2023-06-30T01:00:44.632Z,42.03
2023-06-30T01:01:44.706Z,42.03
2023-06-30T01:02:45.707Z,42.04
2023-06-30T01:03:44.783Z,42.06
2023-06-30T01:04:44.749Z,42.04
2023-06-30T01:05:45.127Z,42.03
2023-06-30T01:06:44.722Z,42.03
2023-06-30T01:07:44.726Z,42.05
2023-06-30T01:08:44.713Z,42.05
2023-06-30T01:09:44.708Z,42.08
2023-06-30T01:10:44.715Z,42.05
2023-06-30T01:11:44.700Z,42.06
2023-06-30T01:12:44.677Z,42.08
2023-06-30T01:13:44.665Z,42.09
2023-06-30T01:14:44.669Z,42.08
2023-06-30T01:15:44.978Z,42.07
2023-06-30T01:16:44.721Z,42.08
2023-06-30T01:17:44.689Z,42.10
2023-06-30T01:18:44.638Z,42.06
2023-06-30T01:19:44.637Z,42.09
2023-06-30T01:20:44.639Z,42.06
2023-06-30T01:21:44.625Z,42.08
2023-06-30T01:22:44.626Z,42.09
2023-06-30T01:23:44.625Z,42.10
2023-06-30T01:24:44.631Z,42.10
2023-06-30T01:25:44.731Z,42.07
2023-06-30T01:26:44.603Z,42.08
2023-06-30T01:27:44.611Z,42.07
2023-06-30T01:28:44.660Z,42.07
2023-06-30T01:29:44.662Z,42.08
2023-06-30T01:30:44.821Z,42.08
2023-06-30T01:31:44.745Z,42.12
2023-06-30T01:32:44.820Z,42.10
2023-06-30T01:33:44.802Z,42.11
2023-06-30T01:34:44.817Z,42.09
2023-06-30T01:35:45.135Z,42.10
2023-06-30T01:36:44.904Z,42.10
2023-06-30T01:37:44.927Z,42.11
2023-06-30T01:38:44.957Z,42.13
2023-06-30T01:39:45.012Z,42.13
2023-06-30T01:40:45.077Z,42.16
2023-06-30T01:41:45.107Z,42.14
2023-06-30T01:42:45.098Z,42.13
2023-06-30T01:43:45.086Z,42.13
2023-06-30T01:44:45.094Z,42.10
2023-06-30T01:45:45.435Z,42.15
2023-06-30T01:46:45.146Z,42.14
2023-06-30T01:47:45.153Z,42.15
2023-06-30T01:48:45.167Z,42.16
2023-06-30T01:49:45.151Z,42.15
2023-06-30T01:50:45.188Z,42.13
2023-06-30T01:51:45.257Z,42.14
2023-06-30T01:52:45.256Z,42.15
2023-06-30T01:53:45.273Z,42.16
2023-06-30T01:54:45.303Z,42.16
2023-06-30T01:55:45.474Z,42.16
2023-06-30T01:56:45.317Z,42.16
2023-06-30T01:57:45.363Z,42.15
2023-06-30T01:58:45.401Z,42.13
2023-06-30T01:59:45.413Z,42.15
2023-06-30T02:00:45.406Z,42.17
2023-06-30T02:01:45.445Z,42.17
2023-06-30T02:02:45.508Z,42.16
2023-06-30T02:03:45.531Z,42.16
2023-06-30T02:04:45.532Z,42.15
2023-06-30T02:05:45.767Z,42.16
2023-06-30T02:06:45.601Z,42.18
2023-06-30T02:07:45.600Z,42.18
2023-06-30T02:08:45.652Z,42.17
2023-06-30T02:09:48.510Z,42.18
2023-06-30T02:10:45.632Z,42.16
2023-06-30T02:11:45.629Z,42.18
2023-06-30T02:12:45.631Z,42.17
2023-06-30T02:13:45.618Z,42.17
2023-06-30T02:14:45.629Z,42.17
2023-06-30T02:15:46.000Z,42.17
2023-06-30T02:16:45.734Z,42.18
2023-06-30T02:17:45.707Z,42.19
2023-06-30T02:18:45.619Z,42.19
2023-06-30T02:19:45.612Z,42.19
2023-06-30T02:20:45.646Z,42.18
2023-06-30T02:21:45.622Z,42.16
2023-06-30T02:22:45.617Z,42.20
2023-06-30T02:23:45.605Z,42.19
2023-06-30T02:24:45.606Z,42.19
2023-06-30T02:25:45.973Z,42.19
2023-06-30T02:26:45.602Z,42.19
2023-06-30T02:27:45.601Z,42.16
2023-06-30T02:28:45.606Z,42.20
2023-06-30T02:29:45.605Z,42.18
2023-06-30T02:30:45.591Z,42.17
2023-06-30T02:31:45.610Z,42.18
2023-06-30T02:32:45.605Z,42.19
2023-06-30T02:33:45.573Z,42.18
2023-06-30T02:34:45.576Z,42.21
2023-06-30T02:35:45.712Z,42.19
2023-06-30T02:36:45.612Z,42.21
2023-06-30T02:37:45.590Z,42.20
2023-06-30T02:38:45.587Z,42.19
2023-06-30T02:39:45.589Z,42.22
2023-06-30T02:40:45.631Z,42.20
2023-06-30T02:41:45.634Z,42.23
2023-06-30T02:42:45.635Z,42.23
2023-06-30T02:43:45.639Z,42.23
2023-06-30T02:44:45.670Z,42.22
2023-06-30T02:45:46.026Z,42.20
2023-06-30T02:46:45.667Z,42.22
2023-06-30T02:47:45.691Z,42.25
2023-06-30T02:48:45.668Z,42.22
2023-06-30T02:49:45.679Z,42.23
2023-06-30T02:50:45.667Z,42.22
2023-06-30T02:51:45.711Z,42.22
2023-06-30T02:52:45.820Z,42.23
2023-06-30T02:53:45.721Z,42.23
2023-06-30T02:54:45.747Z,42.25
2023-06-30T02:55:45.917Z,42.24
2023-06-30T02:56:45.809Z,42.24
2023-06-30T02:57:45.835Z,42.25
2023-06-30T02:58:45.854Z,42.26
2023-06-30T02:59:45.891Z,42.24
2023-06-30T03:00:45.916Z,42.23
2023-06-30T03:01:45.998Z,42.25
2023-06-30T03:02:46.131Z,42.25
2023-06-30T03:03:46.025Z,42.27
2023-06-30T03:04:45.916Z,42.27
2023-06-30T03:05:46.190Z,42.24
2023-06-30T03:06:45.941Z,42.28
2023-06-30T03:07:45.941Z,42.28
2023-06-30T03:08:45.987Z,42.28
2023-06-30T03:09:45.977Z,42.27
2023-06-30T03:10:45.971Z,42.31
2023-06-30T03:11:45.973Z,42.28
2023-06-30T03:12:45.985Z,42.29
2023-06-30T03:13:45.995Z,42.30
2023-06-30T03:14:46.015Z,42.30
2023-06-30T03:15:46.309Z,42.27
2023-06-30T03:16:46.109Z,42.29
2023-06-30T03:17:46.062Z,42.27
2023-06-30T03:18:46.057Z,42.30
2023-06-30T03:19:46.093Z,42.30
2023-06-30T03:20:46.121Z,42.30
2023-06-30T03:21:46.149Z,42.28
2023-06-30T03:22:46.147Z,42.27
2023-06-30T03:23:46.183Z,42.28
2023-06-30T03:24:46.223Z,42.29
2023-06-30T03:25:46.490Z,42.27
2023-06-30T03:26:46.200Z,42.28
2023-06-30T03:27:46.208Z,42.26
2023-06-30T03:28:46.216Z,42.29
2023-06-30T03:29:46.235Z,42.31
2023-06-30T03:30:46.246Z,42.28
2023-06-30T03:31:46.268Z,42.30
2023-06-30T03:32:46.345Z,42.29
2023-06-30T03:33:46.285Z,42.28
2023-06-30T03:34:46.315Z,42.29
2023-06-30T03:35:46.490Z,42.30
2023-06-30T03:36:46.386Z,42.29
2023-06-30T03:37:46.394Z,42.29
2023-06-30T03:38:46.417Z,42.29
2023-06-30T03:39:46.415Z,42.29
2023-06-30T03:40:46.497Z,42.29
2023-06-30T03:41:46.441Z,42.30
2023-06-30T03:42:46.458Z,42.28
2023-06-30T03:43:46.465Z,42.33
2023-06-30T03:44:46.467Z,42.29
2023-06-30T03:45:46.672Z,42.30
2023-06-30T03:46:46.522Z,42.31
2023-06-30T03:47:46.521Z,42.32
2023-06-30T03:48:46.499Z,42.30
2023-06-30T03:49:46.506Z,42.29
2023-06-30T03:50:46.522Z,42.33
2023-06-30T03:51:46.533Z,42.33
2023-06-30T03:52:46.561Z,42.30
2023-06-30T03:53:46.600Z,42.34
2023-06-30T03:54:46.669Z,42.33
2023-06-30T03:55:47.068Z,42.35
2023-06-30T03:56:46.878Z,42.32
2023-06-30T03:57:46.815Z,42.31
2023-06-30T03:58:46.853Z,42.31
2023-06-30T03:59:46.905Z,42.32
2023-06-30T04:00:46.920Z,42.31
2023-06-30T04:01:46.961Z,42.30
2023-06-30T04:02:47.023Z,42.32
2023-06-30T04:03:47.132Z,42.31
2023-06-30T04:04:47.075Z,42.31
2023-06-30T04:05:47.292Z,42.33
2023-06-30T04:06:47.047Z,42.31
2023-06-30T04:07:47.188Z,42.32
2023-06-30T04:08:47.078Z,42.31
2023-06-30T04:09:47.116Z,42.30
2023-06-30T04:10:47.148Z,42.30
2023-06-30T04:11:47.166Z,42.32
2023-06-30T04:12:47.209Z,42.32
2023-06-30T04:13:47.181Z,42.31
2023-06-30T04:14:47.195Z,42.32
2023-06-30T04:15:47.578Z,42.30
2023-06-30T04:16:47.271Z,42.29
2023-06-30T04:17:47.275Z,42.29
2023-06-30T04:18:47.265Z,42.32
2023-06-30T04:19:47.309Z,42.32
2023-06-30T04:20:47.269Z,42.29
2023-06-30T04:21:47.279Z,42.29
2023-06-30T04:22:47.299Z,42.30
2023-06-30T04:23:47.293Z,42.32
2023-06-30T04:24:47.295Z,42.30
2023-06-30T04:25:47.645Z,42.30
2023-06-30T04:26:47.314Z,42.30
2023-06-30T04:27:47.303Z,42.30
2023-06-30T04:28:47.354Z,42.30
2023-06-30T04:29:47.327Z,42.30
2023-06-30T04:30:47.333Z,42.30
2023-06-30T04:31:47.392Z,42.31
2023-06-30T04:32:47.366Z,42.31
2023-06-30T04:33:47.337Z,42.32
2023-06-30T04:34:47.363Z,42.35
2023-06-30T04:35:47.683Z,42.37
2023-06-30T04:36:47.362Z,42.35
2023-06-30T04:37:47.364Z,42.31
2023-06-30T04:38:47.448Z,42.31
2023-06-30T04:39:47.396Z,42.32
2023-06-30T04:40:47.417Z,42.30
2023-06-30T04:41:47.416Z,42.31
2023-06-30T04:42:47.416Z,42.31
2023-06-30T04:43:47.432Z,42.29
2023-06-30T04:44:47.468Z,42.29
2023-06-30T04:45:47.711Z,42.31
2023-06-30T04:46:47.551Z,42.32
2023-06-30T04:47:47.554Z,42.29
2023-06-30T04:48:47.504Z,42.30
2023-06-30T04:49:47.518Z,42.31
2023-06-30T04:50:47.561Z,42.30
2023-06-30T04:51:47.573Z,42.28
2023-06-30T04:52:47.583Z,42.28
2023-06-30T04:53:47.620Z,42.29
2023-06-30T04:54:47.602Z,42.31
2023-06-30T04:55:47.794Z,42.28
2023-06-30T04:56:47.634Z,42.28
2023-06-30T04:57:47.662Z,42.29
2023-06-30T04:58:47.689Z,42.29
2023-06-30T04:59:47.702Z,42.28
2023-06-30T05:00:47.747Z,42.29
2023-06-30T05:01:47.794Z,42.28
2023-06-30T05:02:47.854Z,42.29
2023-06-30T05:03:47.809Z,42.27
2023-06-30T05:04:47.740Z,42.28
2023-06-30T05:05:47.934Z,42.28
2023-06-30T05:06:47.770Z,42.28
2023-06-30T05:07:47.769Z,42.27
2023-06-30T05:08:47.781Z,42.29
2023-06-30T05:09:47.856Z,42.29
2023-06-30T05:10:47.776Z,42.28
2023-06-30T05:11:47.773Z,42.26
2023-06-30T05:12:47.784Z,42.25
2023-06-30T05:13:47.806Z,42.24
2023-06-30T05:14:47.793Z,42.26
2023-06-30T05:15:48.303Z,42.25
2023-06-30T05:16:48.000Z,42.23
2023-06-30T05:17:47.880Z,42.26
2023-06-30T05:18:47.834Z,42.25
2023-06-30T05:19:47.829Z,42.23
2023-06-30T05:20:47.851Z,42.24
2023-06-30T05:21:47.849Z,42.21
2023-06-30T05:22:47.857Z,42.23
2023-06-30T05:23:47.859Z,42.23
2023-06-30T05:24:47.892Z,42.23
2023-06-30T05:25:47.917Z,42.21
2023-06-30T05:26:47.896Z,42.21
2023-06-30T05:27:47.914Z,42.21
2023-06-30T05:29:00.112Z,42.21
2023-06-30T05:29:47.915Z,42.20
2023-06-30T05:30:47.904Z,42.16
2023-06-30T05:31:47.954Z,42.18
2023-06-30T05:32:47.950Z,42.16
2023-06-30T05:33:47.880Z,42.18
2023-06-30T05:34:47.866Z,42.18
2023-06-30T05:35:47.858Z,42.15
2023-06-30T05:36:55.406Z,42.18
2023-06-30T05:37:48.193Z,42.20
2023-06-30T05:38:47.986Z,42.18
2023-06-30T05:39:48.001Z,42.19
2023-06-30T05:40:48.026Z,42.22
2023-06-30T05:41:48.038Z,42.21
2023-06-30T05:42:48.045Z,42.23
2023-06-30T05:43:48.060Z,42.25
2023-06-30T05:44:48.087Z,42.27
2023-06-30T05:45:48.904Z,42.35
2023-06-30T05:46:48.456Z,42.39
2023-06-30T05:47:48.154Z,42.34
2023-06-30T05:48:48.120Z,42.34
2023-06-30T05:49:48.124Z,42.43
2023-06-30T05:50:48.155Z,42.45
2023-06-30T05:51:48.194Z,42.42
2023-06-30T05:52:48.234Z,42.46
2023-06-30T05:53:48.269Z,42.46
2023-06-30T05:54:48.297Z,42.50
2023-06-30T05:55:48.407Z,42.51
2023-06-30T05:56:48.309Z,42.52
2023-06-30T05:57:48.319Z,42.48
2023-06-30T05:58:48.368Z,42.48
2023-06-30T05:59:48.403Z,42.52
2023-06-30T06:00:48.362Z,42.49
2023-06-30T06:01:48.381Z,42.49
2023-06-30T06:02:48.533Z,42.50
2023-06-30T06:03:49.087Z,42.44
2023-06-30T06:04:48.647Z,42.45
2023-06-30T06:05:48.784Z,42.48
2023-06-30T06:06:48.469Z,42.50
2023-06-30T06:07:48.476Z,42.48
2023-06-30T06:08:48.495Z,42.47
2023-06-30T06:09:48.495Z,42.44
2023-06-30T06:10:48.542Z,42.42
2023-06-30T06:11:48.557Z,42.42
2023-06-30T06:12:48.617Z,42.41
2023-06-30T06:13:48.626Z,42.39
2023-06-30T06:14:48.934Z,42.38
2023-06-30T06:15:48.689Z,42.39
2023-06-30T06:16:48.851Z,42.43
2023-06-30T06:17:48.906Z,42.40
2023-06-30T06:18:49.212Z,42.43
2023-06-30T06:19:48.857Z,42.42
2023-06-30T06:20:48.956Z,42.40
2023-06-30T06:21:48.952Z,42.42
2023-06-30T06:22:49.026Z,42.44
2023-06-30T06:23:49.055Z,42.45
2023-06-30T06:24:49.103Z,42.49
2023-06-30T06:25:49.380Z,42.45
2023-06-30T06:26:49.241Z,42.43
2023-06-30T06:27:49.286Z,42.49
2023-06-30T06:28:49.311Z,42.51
2023-06-30T06:29:49.320Z,42.56
2023-06-30T06:30:49.376Z,42.53
2023-06-30T06:31:49.329Z,42.53
2023-06-30T06:32:49.447Z,42.54
2023-06-30T06:33:49.495Z,42.50
2023-06-30T06:34:49.520Z,42.53
2023-06-30T06:35:49.556Z,42.53
2023-06-30T06:36:49.620Z,42.53
2023-06-30T06:37:49.645Z,42.50
2023-06-30T06:38:49.670Z,42.51
2023-06-30T06:39:49.681Z,42.53
2023-06-30T06:40:49.702Z,42.56
2023-06-30T06:41:49.727Z,42.55
2023-06-30T06:42:49.764Z,42.52
2023-06-30T06:43:49.786Z,42.52
2023-06-30T06:44:49.829Z,42.54
2023-06-30T06:45:49.872Z,42.53
2023-06-30T06:46:49.979Z,42.53
2023-06-30T06:47:49.977Z,42.54
2023-06-30T06:48:49.970Z,42.49
2023-06-30T06:49:49.939Z,42.53
2023-06-30T06:50:49.950Z,42.53
2023-06-30T06:51:49.962Z,42.50
2023-06-30T06:52:49.976Z,42.48
2023-06-30T06:53:49.992Z,42.48
2023-06-30T06:54:50.006Z,42.50
2023-06-30T06:55:50.066Z,42.52
2023-06-30T06:56:50.055Z,42.51
2023-06-30T06:57:50.066Z,42.54
2023-06-30T06:58:50.052Z,42.51
2023-06-30T06:59:50.066Z,42.48
2023-06-30T07:00:50.437Z,42.48
2023-06-30T07:01:50.145Z,42.49
2023-06-30T07:02:50.301Z,42.51
2023-06-30T07:03:50.225Z,42.49
2023-06-30T07:04:50.157Z,42.49
2023-06-30T07:05:50.166Z,42.49
2023-06-30T07:06:50.172Z,42.48
2023-06-30T07:07:50.201Z,42.52
2023-06-30T07:08:50.242Z,42.50
2023-06-30T07:09:50.189Z,42.50
2023-06-30T07:10:50.437Z,42.50
2023-06-30T07:11:50.188Z,42.51
2023-06-30T07:12:50.234Z,42.51
2023-06-30T07:13:50.245Z,42.50
2023-06-30T07:14:50.364Z,42.51
2023-06-30T07:15:50.457Z,42.52
2023-06-30T07:16:50.324Z,42.52
2023-06-30T07:17:50.417Z,42.51
2023-06-30T07:18:50.380Z,42.53
2023-06-30T07:19:50.372Z,42.54
2023-06-30T07:20:50.367Z,42.55
2023-06-30T07:21:50.413Z,42.53
2023-06-30T07:22:50.410Z,42.53
2023-06-30T07:23:50.410Z,42.51
2023-06-30T07:24:50.430Z,42.54
2023-06-30T07:25:50.495Z,42.54
2023-06-30T07:26:50.434Z,42.51
2023-06-30T07:27:50.423Z,42.54
2023-06-30T07:28:50.441Z,42.54
2023-06-30T07:29:50.457Z,42.53
2023-06-30T07:30:50.480Z,42.51
2023-06-30T07:31:50.618Z,42.53
2023-06-30T07:32:50.562Z,42.52
2023-06-30T07:33:50.949Z,42.54
2023-06-30T07:34:50.611Z,42.51
2023-06-30T07:35:50.628Z,42.47
2023-06-30T07:36:50.648Z,42.44
2023-06-30T07:37:50.651Z,42.47
2023-06-30T07:38:50.661Z,42.44
2023-06-30T07:39:50.695Z,42.43
2023-06-30T07:40:56.485Z,42.41
2023-06-30T07:41:50.774Z,42.40
2023-06-30T07:42:50.723Z,42.42
2023-06-30T07:43:50.737Z,42.40
2023-06-30T07:44:50.709Z,42.37
2023-06-30T07:45:50.823Z,42.37
2023-06-30T07:46:50.700Z,42.35
2023-06-30T07:47:50.778Z,42.35
2023-06-30T07:48:50.768Z,42.34
2023-06-30T07:49:50.683Z,42.32
2023-06-30T07:51:07.075Z,42.32
2023-06-30T07:51:50.664Z,42.34
2023-06-30T07:52:50.651Z,42.34
2023-06-30T07:53:50.658Z,42.32
2023-06-30T07:54:50.653Z,42.32
2023-06-30T07:55:50.661Z,42.32
2023-06-30T07:56:50.755Z,42.34
2023-06-30T07:57:50.655Z,42.35
2023-06-30T07:58:50.648Z,42.34
2023-06-30T07:59:50.634Z,42.31
2023-06-30T08:00:50.954Z,42.35
2023-06-30T08:01:50.633Z,42.32
2023-06-30T08:02:50.764Z,42.36
2023-06-30T08:03:50.782Z,42.33
2023-06-30T08:04:50.797Z,42.37
2023-06-30T08:05:51.072Z,42.37
2023-06-30T08:06:50.622Z,42.38
2023-06-30T08:07:51.752Z,42.37
2023-06-30T08:08:50.626Z,42.37
2023-06-30T08:09:50.629Z,42.41
2023-06-30T08:10:50.639Z,42.40
2023-06-30T08:11:50.623Z,42.40
2023-06-30T08:12:50.657Z,42.42
2023-06-30T08:13:50.628Z,42.43
2023-06-30T08:14:50.654Z,42.41
2023-06-30T08:15:50.955Z,42.41
2023-06-30T08:16:50.824Z,42.42
2023-06-30T08:17:54.735Z,42.44
2023-06-30T08:18:52.293Z,42.41
2023-06-30T08:19:50.799Z,42.44
2023-06-30T08:20:50.736Z,42.43
2023-06-30T08:21:50.749Z,42.40
2023-06-30T08:22:50.727Z,42.41
2023-06-30T08:23:50.731Z,42.36
2023-06-30T08:24:50.775Z,42.37
2023-06-30T08:25:50.705Z,42.35
2023-06-30T08:26:50.699Z,42.31
2023-06-30T08:27:50.712Z,42.32
2023-06-30T08:28:50.739Z,42.31
2023-06-30T08:29:50.712Z,42.30
2023-06-30T08:30:50.755Z,42.32
2023-06-30T08:31:50.726Z,42.29
2023-06-30T08:32:50.757Z,42.30
2023-06-30T08:33:50.969Z,42.30
2023-06-30T08:34:50.714Z,42.31
2023-06-30T08:35:50.726Z,42.27
2023-06-30T08:36:50.712Z,42.28
2023-06-30T08:37:53.433Z,42.28
2023-06-30T08:38:50.680Z,42.31
2023-06-30T08:39:50.676Z,42.28
2023-06-30T08:40:50.669Z,42.31
2023-06-30T08:41:50.659Z,42.31
2023-06-30T08:42:50.649Z,42.30
2023-06-30T08:43:50.652Z,42.30
2023-06-30T08:44:50.696Z,42.32
2023-06-30T08:45:50.626Z,42.33
2023-06-30T08:46:50.661Z,42.30
2023-06-30T08:47:50.646Z,42.32
2023-06-30T08:48:50.628Z,42.31
2023-06-30T08:49:50.631Z,42.31
2023-06-30T08:50:50.642Z,42.32
2023-06-30T08:51:50.608Z,42.31
2023-06-30T08:52:50.604Z,42.34
2023-06-30T08:53:50.613Z,42.36
2023-06-30T08:54:51.018Z,42.35
2023-06-30T08:55:50.662Z,42.37
2023-06-30T08:56:51.469Z,42.37
2023-06-30T08:57:50.778Z,42.34
2023-06-30T08:58:50.865Z,42.39
2023-06-30T08:59:50.922Z,42.37
2023-06-30T09:00:51.037Z,42.36
2023-06-30T09:01:51.098Z,42.39
2023-06-30T09:02:51.199Z,42.37
2023-06-30T09:03:51.250Z,42.37
2023-06-30T09:04:51.225Z,42.39
2023-06-30T09:05:51.273Z,42.36
2023-06-30T09:06:51.346Z,42.37
2023-06-30T09:07:51.418Z,42.39
2023-06-30T09:08:51.463Z,42.38
2023-06-30T09:09:51.536Z,42.41
2023-06-30T09:10:51.605Z,42.37
2023-06-30T09:11:51.667Z,42.39
2023-06-30T09:12:51.743Z,42.38
2023-06-30T09:13:51.803Z,42.41
2023-06-30T09:14:52.072Z,42.37
2023-06-30T09:15:52.485Z,42.39
2023-06-30T09:16:52.101Z,42.41
2023-06-30T09:17:52.077Z,42.40
2023-06-30T09:18:52.108Z,42.40
2023-06-30T09:19:52.485Z,42.37
2023-06-30T09:20:52.209Z,42.39
2023-06-30T09:21:52.266Z,42.43
2023-06-30T09:22:56.326Z,42.43
2023-06-30T09:23:52.323Z,42.45
2023-06-30T09:24:52.323Z,42.45
2023-06-30T09:25:52.341Z,42.44
2023-06-30T09:26:52.309Z,42.45
2023-06-30T09:27:52.305Z,42.44
2023-06-30T09:28:52.295Z,42.48
2023-06-30T09:29:52.273Z,42.47
2023-06-30T09:30:52.270Z,42.49
2023-06-30T09:31:52.306Z,42.47
2023-06-30T09:32:52.314Z,42.47
2023-06-30T09:33:52.263Z,42.57
2023-06-30T09:34:52.266Z,42.70
2023-06-30T09:35:52.265Z,42.71
2023-06-30T09:36:52.253Z,42.74
2023-06-30T09:37:52.244Z,42.77
2023-06-30T09:38:52.246Z,42.79
2023-06-30T09:39:52.260Z,42.80
2023-06-30T09:40:52.232Z,42.81
2023-06-30T09:41:52.276Z,42.81
2023-06-30T09:42:52.226Z,42.86
2023-06-30T09:43:52.257Z,42.88
2023-06-30T09:44:52.314Z,42.86
2023-06-30T09:45:52.368Z,42.85
2023-06-30T09:46:52.406Z,42.81
2023-06-30T09:47:52.451Z,42.81
2023-06-30T09:48:52.469Z,42.81
2023-06-30T09:49:52.523Z,42.77
2023-06-30T09:50:52.541Z,42.80
2023-06-30T09:51:52.557Z,42.78
2023-06-30T09:52:52.593Z,42.81
2023-06-30T09:53:52.627Z,42.75
2023-06-30T09:54:52.634Z,42.73
2023-06-30T09:55:52.699Z,42.72
2023-06-30T09:56:52.755Z,42.74
2023-06-30T09:57:52.799Z,42.74
2023-06-30T09:58:52.850Z,42.73
2023-06-30T09:59:52.919Z,42.73
2023-06-30T10:00:52.986Z,42.75
2023-06-30T10:01:53.067Z,42.70
2023-06-30T10:02:53.177Z,42.69
2023-06-30T10:03:53.258Z,42.69
2023-06-30T10:04:53.265Z,42.70
2023-06-30T10:05:53.333Z,42.70
2023-06-30T10:06:53.352Z,42.71
2023-06-30T10:07:53.402Z,42.68
2023-06-30T10:08:53.447Z,42.70
2023-06-30T10:09:53.511Z,42.76
2023-06-30T10:10:53.591Z,42.76
2023-06-30T10:11:53.619Z,42.78
2023-06-30T10:12:53.617Z,42.76
2023-06-30T10:13:53.630Z,42.76
2023-06-30T10:14:53.686Z,42.77
2023-06-30T10:15:53.750Z,42.79
2023-06-30T10:16:53.783Z,42.73
2023-06-30T10:17:54.095Z,42.72
2023-06-30T10:18:53.827Z,42.71
2023-06-30T10:19:53.880Z,42.69
2023-06-30T10:20:53.946Z,42.70
2023-06-30T10:21:53.992Z,42.69
2023-06-30T10:22:54.030Z,42.71
2023-06-30T10:23:54.037Z,42.68
2023-06-30T10:24:54.080Z,42.67
2023-06-30T10:25:54.170Z,42.66
2023-06-30T10:26:54.147Z,42.66
2023-06-30T10:27:54.193Z,42.65
2023-06-30T10:28:54.271Z,42.68
2023-06-30T10:29:54.316Z,42.66
2023-06-30T10:30:54.370Z,42.64
2023-06-30T10:32:53.560Z,42.62
2023-06-30T10:33:56.210Z,42.61
2023-06-30T10:34:54.560Z,42.61
2023-06-30T10:35:54.571Z,42.62
2023-06-30T10:36:54.567Z,42.61
2023-06-30T10:37:54.533Z,42.60
2023-06-30T10:38:54.530Z,42.59
2023-06-30T10:39:54.529Z,42.60
2023-06-30T10:40:54.521Z,42.60
2023-06-30T10:41:54.521Z,42.59
2023-06-30T10:42:54.507Z,42.58
2023-06-30T10:43:54.496Z,42.56
2023-06-30T10:44:54.498Z,42.57
2023-06-30T10:45:54.522Z,42.57
2023-06-30T10:46:54.534Z,42.57
2023-06-30T10:47:54.568Z,42.57
2023-06-30T10:48:54.501Z,42.58
2023-06-30T10:49:54.550Z,42.55
2023-06-30T10:50:54.513Z,42.57
2023-06-30T10:51:54.502Z,42.55
2023-06-30T10:52:54.560Z,42.58
2023-06-30T10:53:54.498Z,42.57
2023-06-30T10:54:54.528Z,42.58
2023-06-30T10:55:54.498Z,42.58
2023-06-30T10:56:54.500Z,42.56
2023-06-30T10:57:54.484Z,42.58
2023-06-30T10:58:54.487Z,42.57
2023-06-30T10:59:54.546Z,42.56
2023-06-30T11:00:54.606Z,42.57
2023-06-30T11:01:54.660Z,42.56
2023-06-30T11:02:54.829Z,42.58
2023-06-30T11:03:54.887Z,42.58
2023-06-30T11:04:54.977Z,42.55
2023-06-30T11:05:54.887Z,42.55
2023-06-30T11:06:54.977Z,42.56
2023-06-30T11:07:55.010Z,42.53
2023-06-30T11:08:55.094Z,42.54
2023-06-30T11:09:55.138Z,42.53
2023-06-30T11:10:55.189Z,42.55
2023-06-30T11:11:55.259Z,42.51
2023-06-30T11:12:55.315Z,42.62
2023-06-30T11:13:55.370Z,43.38
2023-06-30T11:14:55.438Z,46.18
2023-06-30T11:15:55.676Z,47.65
2023-06-30T11:16:55.467Z,48.52
2023-06-30T11:17:55.611Z,49.56
2023-06-30T11:18:55.618Z,50.00
2023-06-30T11:19:55.516Z,50.63
2023-06-30T11:20:55.528Z,51.19
2023-06-30T11:21:55.558Z,51.61
2023-06-30T11:22:55.587Z,51.53
2023-06-30T11:23:55.621Z,51.40
2023-06-30T11:24:55.689Z,51.28
2023-06-30T11:25:55.674Z,51.44
2023-06-30T11:26:56.421Z,51.33
2023-06-30T11:27:55.745Z,51.20
2023-06-30T11:28:55.689Z,51.18
2023-06-30T11:29:55.715Z,51.06
2023-06-30T11:30:55.768Z,51.22
2023-06-30T11:31:55.777Z,51.09
2023-06-30T11:32:55.811Z,51.04
2023-06-30T11:33:55.843Z,51.01
2023-06-30T11:34:55.910Z,50.91
2023-06-30T11:35:55.973Z,50.81
2023-06-30T11:36:56.113Z,50.71
2023-06-30T11:37:56.117Z,50.81
2023-06-30T11:38:56.179Z,51.38
2023-06-30T11:39:56.225Z,51.96
2023-06-30T11:40:56.280Z,52.09
2023-06-30T11:41:56.277Z,52.54
2023-06-30T11:42:56.288Z,53.03
2023-06-30T11:43:56.299Z,53.07
2023-06-30T11:44:56.295Z,52.97
2023-06-30T11:45:56.307Z,52.85
2023-06-30T11:46:57.849Z,52.75
2023-06-30T11:47:56.337Z,52.47
2023-06-30T11:48:56.299Z,52.44
2023-06-30T11:49:56.296Z,52.82
2023-06-30T11:50:56.268Z,52.78
2023-06-30T11:51:56.261Z,52.68
2023-06-30T11:52:56.253Z,52.60
2023-06-30T11:53:56.231Z,52.85
2023-06-30T11:54:56.223Z,52.75
2023-06-30T11:55:56.212Z,52.53
2023-06-30T11:56:56.907Z,52.50
2023-06-30T11:57:56.200Z,52.25
2023-06-30T11:58:56.186Z,52.45
2023-06-30T11:59:56.180Z,52.32
2023-06-30T12:00:56.553Z,52.55
2023-06-30T12:01:56.152Z,52.59
2023-06-30T12:02:56.279Z,52.44
2023-06-30T12:03:56.244Z,52.58
2023-06-30T12:04:57.065Z,52.82
2023-06-30T12:05:56.183Z,52.91
2023-06-30T12:06:56.167Z,52.81
2023-06-30T12:07:57.286Z,52.91
2023-06-30T12:08:56.148Z,52.92
2023-06-30T12:09:56.107Z,53.10
2023-06-30T12:10:56.106Z,53.02
2023-06-30T12:11:56.086Z,52.88
2023-06-30T12:12:56.096Z,52.93
2023-06-30T12:13:56.062Z,52.72
2023-06-30T12:14:56.049Z,52.57
2023-06-30T12:15:56.053Z,52.37
2023-06-30T12:16:56.016Z,52.32
2023-06-30T12:17:56.061Z,52.37
2023-06-30T12:18:56.014Z,52.85
2023-06-30T12:19:56.011Z,53.28
2023-06-30T12:20:56.000Z,53.48
2023-06-30T12:21:55.996Z,53.73
2023-06-30T12:22:55.987Z,53.80
2023-06-30T12:23:55.987Z,53.89
2023-06-30T12:24:55.992Z,54.01
2023-06-30T12:25:55.983Z,53.94
2023-06-30T12:26:55.969Z,53.98
2023-06-30T12:27:55.961Z,54.04
2023-06-30T12:28:55.986Z,54.12
2023-06-30T12:29:55.946Z,54.10
2023-06-30T12:30:55.960Z,54.29
2023-06-30T12:31:55.962Z,54.20
2023-06-30T12:32:56.004Z,54.13
2023-06-30T12:33:56.081Z,54.03
2023-06-30T12:34:55.957Z,53.86
2023-06-30T12:35:55.972Z,53.80
2023-06-30T12:36:55.940Z,53.64
2023-06-30T12:37:55.957Z,53.59
2023-06-30T12:38:56.020Z,53.41
2023-06-30T12:39:56.085Z,53.05
2023-06-30T12:40:56.184Z,53.15
2023-06-30T12:41:56.231Z,53.01
2023-06-30T12:42:56.259Z,52.73
2023-06-30T12:43:56.368Z,52.97
2023-06-30T12:44:56.366Z,52.41
2023-06-30T12:45:56.425Z,52.26
2023-06-30T12:46:56.418Z,52.34
2023-06-30T12:47:56.538Z,52.43
2023-06-30T12:48:56.486Z,52.52
2023-06-30T12:49:56.523Z,52.31
2023-06-30T12:50:56.596Z,52.41
2023-06-30T12:51:56.591Z,52.45
2023-06-30T12:52:56.625Z,52.32
2023-06-30T12:53:56.654Z,52.28